sensor_id;sensor_type;location;lat;lon;timestamp;P1;durP1;ratioP1;P2;durP2;ratioP2
3278;SDS011;1651;50.940;6.888;2022-09-13T00:04:29;8.20;;;4.60;;
3278;SDS011;1651;50.940;6.888;2022-09-13T00:23:03;10.60;;;4.50;;
3278;SDS011;1651;50.940;6.888;2022-09-13T00:34:48;4.93;;;4.43;;
3278;SDS011;1651;50.940;6.888;2022-09-13T00:37:15;4.63;;;4.20;;
3278;SDS011;1651;50.940;6.888;2022-09-13T00:39:45;5.60;;;4.90;;
3278;SDS011;1651;50.940;6.888;2022-09-13T00:42:23;4.90;;;4.03;;
3278;SDS011;1651;50.940;6.888;2022-09-13T00:45:18;7.43;;;5.63;;
3278;SDS011;1651;50.940;6.888;2022-09-13T00:51:02;6.00;;;4.67;;
3278;SDS011;1651;50.940;6.888;2022-09-13T00:53:50;7.40;;;5.27;;
3278;SDS011;1651;50.940;6.888;2022-09-13T00:56:20;7.13;;;5.27;;
3278;SDS011;1651;50.940;6.888;2022-09-13T00:59:34;6.50;;;4.23;;
3278;SDS011;1651;50.940;6.888;2022-09-13T01:02:02;5.77;;;4.50;;
3278;SDS011;1651;50.940;6.888;2022-09-13T01:04:30;5.53;;;4.67;;
3278;SDS011;1651;50.940;6.888;2022-09-13T01:06:58;5.23;;;4.43;;
3278;SDS011;1651;50.940;6.888;2022-09-13T01:09:28;5.53;;;4.20;;
3278;SDS011;1651;50.940;6.888;2022-09-13T01:12:02;5.30;;;4.80;;
3278;SDS011;1651;50.940;6.888;2022-09-13T01:14:32;6.00;;;4.30;;
3278;SDS011;1651;50.940;6.888;2022-09-13T01:17:06;6.30;;;5.00;;
3278;SDS011;1651;50.940;6.888;2022-09-13T01:19:37;5.10;;;4.60;;
3278;SDS011;1651;50.940;6.888;2022-09-13T01:27:35;5.53;;;4.53;;
3278;SDS011;1651;50.940;6.888;2022-09-13T01:30:06;7.10;;;4.53;;
3278;SDS011;1651;50.940;6.888;2022-09-13T01:37:53;8.60;;;4.67;;
3278;SDS011;1651;50.940;6.888;2022-09-13T01:48:20;5.83;;;5.23;;
3278;SDS011;1651;50.940;6.888;2022-09-13T01:51:24;7.27;;;5.63;;
3278;SDS011;1651;50.940;6.888;2022-09-13T01:59:15;7.30;;;5.07;;
3278;SDS011;1651;50.940;6.888;2022-09-13T02:01:58;5.30;;;4.40;;
3278;SDS011;1651;50.940;6.888;2022-09-13T02:04:41;7.37;;;5.07;;
3278;SDS011;1651;50.940;6.888;2022-09-13T02:07:09;6.17;;;5.10;;
3278;SDS011;1651;50.940;6.888;2022-09-13T02:09:38;5.93;;;5.40;;
3278;SDS011;1651;50.940;6.888;2022-09-13T02:12:13;7.10;;;5.57;;
3278;SDS011;1651;50.940;6.888;2022-09-13T02:14:42;5.97;;;4.60;;
3278;SDS011;1651;50.940;6.888;2022-09-13T02:17:11;9.40;;;5.93;;
3278;SDS011;1651;50.940;6.888;2022-09-13T02:19:40;7.50;;;5.40;;
3278;SDS011;1651;50.940;6.888;2022-09-13T02:22:10;5.53;;;4.47;;
3278;SDS011;1651;50.940;6.888;2022-09-13T02:24:38;7.80;;;4.77;;
3278;SDS011;1651;50.940;6.888;2022-09-13T02:27:07;7.27;;;5.30;;
3278;SDS011;1651;50.940;6.888;2022-09-13T02:29:36;5.77;;;5.07;;
3278;SDS011;1651;50.940;6.888;2022-09-13T02:34:31;5.00;;;4.50;;
3278;SDS011;1651;50.940;6.888;2022-09-13T02:36:59;6.63;;;4.03;;
3278;SDS011;1651;50.940;6.888;2022-09-13T02:39:26;7.90;;;4.60;;
3278;SDS011;1651;50.940;6.888;2022-09-13T02:47:09;8.37;;;4.50;;
3278;SDS011;1651;50.940;6.888;2022-09-13T02:54:56;5.30;;;4.30;;
3278;SDS011;1651;50.940;6.888;2022-09-13T02:57:32;4.80;;;3.73;;
3278;SDS011;1651;50.940;6.888;2022-09-13T03:00:03;5.80;;;4.43;;
3278;SDS011;1651;50.940;6.888;2022-09-13T03:02:31;5.23;;;4.30;;
3278;SDS011;1651;50.940;6.888;2022-09-13T03:04:59;6.13;;;4.33;;
3278;SDS011;1651;50.940;6.888;2022-09-13T03:07:26;5.20;;;4.50;;
3278;SDS011;1651;50.940;6.888;2022-09-13T03:09:54;5.50;;;4.60;;
3278;SDS011;1651;50.940;6.888;2022-09-13T03:25:47;6.17;;;4.83;;
3278;SDS011;1651;50.940;6.888;2022-09-13T03:28:38;5.57;;;4.33;;
3278;SDS011;1651;50.940;6.888;2022-09-13T03:31:11;4.37;;;3.97;;
3278;SDS011;1651;50.940;6.888;2022-09-13T03:33:46;4.90;;;4.10;;
3278;SDS011;1651;50.940;6.888;2022-09-13T03:36:20;5.87;;;4.80;;
3278;SDS011;1651;50.940;6.888;2022-09-13T03:38:54;5.80;;;4.53;;
3278;SDS011;1651;50.940;6.888;2022-09-13T03:41:25;5.97;;;4.67;;
3278;SDS011;1651;50.940;6.888;2022-09-13T03:43:53;5.60;;;5.10;;
3278;SDS011;1651;50.940;6.888;2022-09-13T03:48:52;6.53;;;4.43;;
3278;SDS011;1651;50.940;6.888;2022-09-13T03:51:18;4.67;;;4.27;;
3278;SDS011;1651;50.940;6.888;2022-09-13T03:53:46;7.57;;;4.33;;
3278;SDS011;1651;50.940;6.888;2022-09-13T04:03:00;7.77;;;4.87;;
3278;SDS011;1651;50.940;6.888;2022-09-13T04:05:41;5.70;;;4.53;;
3278;SDS011;1651;50.940;6.888;2022-09-13T04:08:07;6.07;;;4.60;;
3278;SDS011;1651;50.940;6.888;2022-09-13T04:10:34;4.80;;;4.30;;
3278;SDS011;1651;50.940;6.888;2022-09-13T04:13:03;8.70;;;4.60;;
3278;SDS011;1651;50.940;6.888;2022-09-13T04:17:58;4.30;;;3.90;;
3278;SDS011;1651;50.940;6.888;2022-09-13T04:20:25;6.00;;;4.60;;
3278;SDS011;1651;50.940;6.888;2022-09-13T04:22:54;5.67;;;4.60;;
3278;SDS011;1651;50.940;6.888;2022-09-13T04:25:21;5.00;;;4.43;;
3278;SDS011;1651;50.940;6.888;2022-09-13T04:27:54;5.90;;;4.63;;
3278;SDS011;1651;50.940;6.888;2022-09-13T04:30:21;5.87;;;4.77;;
3278;SDS011;1651;50.940;6.888;2022-09-13T04:32:47;6.40;;;4.07;;
3278;SDS011;1651;50.940;6.888;2022-09-13T04:35:13;5.57;;;4.90;;
3278;SDS011;1651;50.940;6.888;2022-09-13T04:37:41;5.37;;;4.47;;
3278;SDS011;1651;50.940;6.888;2022-09-13T04:40:08;4.97;;;4.00;;
3278;SDS011;1651;50.940;6.888;2022-09-13T04:42:34;6.60;;;5.10;;
3278;SDS011;1651;50.940;6.888;2022-09-13T04:45:00;6.03;;;4.20;;
3278;SDS011;1651;50.940;6.888;2022-09-13T04:47:26;6.07;;;4.10;;
3278;SDS011;1651;50.940;6.888;2022-09-13T04:49:52;6.33;;;4.63;;
3278;SDS011;1651;50.940;6.888;2022-09-13T04:52:18;5.67;;;4.90;;
3278;SDS011;1651;50.940;6.888;2022-09-13T04:54:44;4.80;;;4.30;;
3278;SDS011;1651;50.940;6.888;2022-09-13T04:57:12;8.13;;;4.40;;
3278;SDS011;1651;50.940;6.888;2022-09-13T04:59:39;4.87;;;4.20;;
3278;SDS011;1651;50.940;6.888;2022-09-13T05:02:05;4.43;;;3.70;;
3278;SDS011;1651;50.940;6.888;2022-09-13T05:04:32;8.70;;;4.53;;
3278;SDS011;1651;50.940;6.888;2022-09-13T05:06:58;7.70;;;5.10;;
3278;SDS011;1651;50.940;6.888;2022-09-13T05:09:28;5.47;;;4.67;;
3278;SDS011;1651;50.940;6.888;2022-09-13T05:11:54;5.10;;;4.60;;
3278;SDS011;1651;50.940;6.888;2022-09-13T05:14:20;6.33;;;5.03;;
3278;SDS011;1651;50.940;6.888;2022-09-13T05:16:46;4.93;;;4.43;;
3278;SDS011;1651;50.940;6.888;2022-09-13T05:19:12;6.53;;;4.90;;
3278;SDS011;1651;50.940;6.888;2022-09-13T05:21:38;5.67;;;4.80;;
3278;SDS011;1651;50.940;6.888;2022-09-13T05:24:05;6.50;;;4.83;;
3278;SDS011;1651;50.940;6.888;2022-09-13T05:26:33;5.37;;;4.23;;
3278;SDS011;1651;50.940;6.888;2022-09-13T05:28:59;6.73;;;4.70;;
3278;SDS011;1651;50.940;6.888;2022-09-13T05:31:27;5.63;;;4.33;;
3278;SDS011;1651;50.940;6.888;2022-09-13T05:33:57;12.70;;;4.83;;
3278;SDS011;1651;50.940;6.888;2022-09-13T05:36:23;7.63;;;5.47;;
3278;SDS011;1651;50.940;6.888;2022-09-13T05:38:51;5.47;;;4.93;;
3278;SDS011;1651;50.940;6.888;2022-09-13T05:41:20;11.13;;;4.70;;
3278;SDS011;1651;50.940;6.888;2022-09-13T05:43:46;5.90;;;4.90;;
3278;SDS011;1651;50.940;6.888;2022-09-13T05:46:13;5.50;;;4.33;;
3278;SDS011;1651;50.940;6.888;2022-09-13T05:48:41;6.13;;;4.80;;
3278;SDS011;1651;50.940;6.888;2022-09-13T05:51:15;4.90;;;4.20;;
3278;SDS011;1651;50.940;6.888;2022-09-13T05:53:42;6.97;;;5.10;;
3278;SDS011;1651;50.940;6.888;2022-09-13T05:56:11;6.00;;;5.07;;
3278;SDS011;1651;50.940;6.888;2022-09-13T05:58:40;6.73;;;5.03;;
3278;SDS011;1651;50.940;6.888;2022-09-13T06:01:07;6.60;;;4.90;;
3278;SDS011;1651;50.940;6.888;2022-09-13T06:03:34;14.57;;;5.33;;
3278;SDS011;1651;50.940;6.888;2022-09-13T06:06:01;6.20;;;5.23;;
3278;SDS011;1651;50.940;6.888;2022-09-13T06:08:27;8.43;;;5.17;;
3278;SDS011;1651;50.940;6.888;2022-09-13T06:10:54;7.80;;;5.10;;
3278;SDS011;1651;50.940;6.888;2022-09-13T06:13:21;9.33;;;4.93;;
3278;SDS011;1651;50.940;6.888;2022-09-13T06:15:47;4.53;;;3.90;;
3278;SDS011;1651;50.940;6.888;2022-09-13T06:18:13;7.23;;;4.93;;
3278;SDS011;1651;50.940;6.888;2022-09-13T06:20:42;7.90;;;5.67;;
3278;SDS011;1651;50.940;6.888;2022-09-13T06:23:09;5.10;;;4.37;;
3278;SDS011;1651;50.940;6.888;2022-09-13T06:25:39;5.57;;;4.33;;
3278;SDS011;1651;50.940;6.888;2022-09-13T06:28:06;5.97;;;4.53;;
3278;SDS011;1651;50.940;6.888;2022-09-13T06:30:32;7.00;;;4.77;;
3278;SDS011;1651;50.940;6.888;2022-09-13T06:32:58;5.33;;;4.70;;
3278;SDS011;1651;50.940;6.888;2022-09-13T06:35:25;8.40;;;4.70;;
3278;SDS011;1651;50.940;6.888;2022-09-13T06:37:54;6.93;;;4.90;;
3278;SDS011;1651;50.940;6.888;2022-09-13T06:40:24;7.03;;;4.83;;
3278;SDS011;1651;50.940;6.888;2022-09-13T06:42:51;9.50;;;5.10;;
3278;SDS011;1651;50.940;6.888;2022-09-13T06:45:17;5.40;;;4.73;;
3278;SDS011;1651;50.940;6.888;2022-09-13T06:47:43;7.03;;;5.03;;
3278;SDS011;1651;50.940;6.888;2022-09-13T07:00:26;5.57;;;4.97;;
3278;SDS011;1651;50.940;6.888;2022-09-13T07:02:53;8.13;;;4.37;;
3278;SDS011;1651;50.940;6.888;2022-09-13T07:05:19;8.90;;;4.80;;
3278;SDS011;1651;50.940;6.888;2022-09-13T07:07:54;6.80;;;4.70;;
3278;SDS011;1651;50.940;6.888;2022-09-13T07:10:21;6.30;;;4.40;;
3278;SDS011;1651;50.940;6.888;2022-09-13T07:12:54;5.30;;;4.50;;
3278;SDS011;1651;50.940;6.888;2022-09-13T07:15:26;5.37;;;3.93;;
3278;SDS011;1651;50.940;6.888;2022-09-13T07:17:53;6.17;;;4.50;;
3278;SDS011;1651;50.940;6.888;2022-09-13T07:20:22;5.93;;;5.00;;
3278;SDS011;1651;50.940;6.888;2022-09-13T07:23:02;6.30;;;4.70;;
3278;SDS011;1651;50.940;6.888;2022-09-13T07:25:36;6.30;;;4.50;;
3278;SDS011;1651;50.940;6.888;2022-09-13T07:31:16;6.53;;;4.63;;
3278;SDS011;1651;50.940;6.888;2022-09-13T07:33:59;6.70;;;4.63;;
3278;SDS011;1651;50.940;6.888;2022-09-13T07:36:29;5.20;;;4.70;;
3278;SDS011;1651;50.940;6.888;2022-09-13T07:38:59;8.90;;;4.80;;
3278;SDS011;1651;50.940;6.888;2022-09-13T07:41:30;7.40;;;4.10;;
3278;SDS011;1651;50.940;6.888;2022-09-13T07:43:57;8.50;;;3.83;;
3278;SDS011;1651;50.940;6.888;2022-09-13T07:46:26;5.57;;;4.37;;
3278;SDS011;1651;50.940;6.888;2022-09-13T07:48:54;4.13;;;3.73;;
3278;SDS011;1651;50.940;6.888;2022-09-13T07:51:30;5.30;;;4.37;;
3278;SDS011;1651;50.940;6.888;2022-09-13T07:54:04;5.00;;;4.50;;
3278;SDS011;1651;50.940;6.888;2022-09-13T07:56:32;4.50;;;4.07;;
3278;SDS011;1651;50.940;6.888;2022-09-13T07:59:15;6.30;;;5.03;;
3278;SDS011;1651;50.940;6.888;2022-09-13T08:01:42;5.80;;;4.60;;
3278;SDS011;1651;50.940;6.888;2022-09-13T08:04:11;5.97;;;4.07;;
3278;SDS011;1651;50.940;6.888;2022-09-13T08:06:38;5.03;;;4.43;;
3278;SDS011;1651;50.940;6.888;2022-09-13T08:09:06;4.17;;;3.77;;
3278;SDS011;1651;50.940;6.888;2022-09-13T08:11:36;6.63;;;4.10;;
3278;SDS011;1651;50.940;6.888;2022-09-13T08:14:04;5.87;;;4.00;;
3278;SDS011;1651;50.940;6.888;2022-09-13T08:16:30;4.80;;;4.27;;
3278;SDS011;1651;50.940;6.888;2022-09-13T08:18:58;6.33;;;3.67;;
3278;SDS011;1651;50.940;6.888;2022-09-13T08:21:24;7.00;;;3.67;;
3278;SDS011;1651;50.940;6.888;2022-09-13T08:23:54;4.80;;;3.90;;
3278;SDS011;1651;50.940;6.888;2022-09-13T08:26:21;8.77;;;3.63;;
3278;SDS011;1651;50.940;6.888;2022-09-13T08:28:53;5.63;;;3.60;;
3278;SDS011;1651;50.940;6.888;2022-09-13T08:31:20;5.43;;;3.80;;
3278;SDS011;1651;50.940;6.888;2022-09-13T08:33:48;5.63;;;3.60;;
3278;SDS011;1651;50.940;6.888;2022-09-13T08:36:14;6.47;;;3.57;;
3278;SDS011;1651;50.940;6.888;2022-09-13T08:38:46;5.47;;;3.67;;
3278;SDS011;1651;50.940;6.888;2022-09-13T08:43:45;5.73;;;3.80;;
3278;SDS011;1651;50.940;6.888;2022-09-13T08:48:43;5.50;;;3.97;;
3278;SDS011;1651;50.940;6.888;2022-09-13T08:51:18;3.87;;;3.40;;
3278;SDS011;1651;50.940;6.888;2022-09-13T08:53:48;7.30;;;4.30;;
3278;SDS011;1651;50.940;6.888;2022-09-13T08:58:58;5.77;;;3.53;;
3278;SDS011;1651;50.940;6.888;2022-09-13T09:04:04;11.13;;;3.30;;
3278;SDS011;1651;50.940;6.888;2022-09-13T09:06:33;5.33;;;2.90;;
3278;SDS011;1651;50.940;6.888;2022-09-13T09:09:11;6.70;;;3.70;;
3278;SDS011;1651;50.940;6.888;2022-09-13T09:14:15;3.60;;;2.30;;
3278;SDS011;1651;50.940;6.888;2022-09-13T09:16:56;3.43;;;2.77;;
3278;SDS011;1651;50.940;6.888;2022-09-13T09:19:32;3.37;;;2.10;;
3278;SDS011;1651;50.940;6.888;2022-09-13T09:22:00;2.37;;;2.10;;
3278;SDS011;1651;50.940;6.888;2022-09-13T09:24:27;4.10;;;2.37;;
3278;SDS011;1651;50.940;6.888;2022-09-13T09:26:56;2.87;;;2.37;;
3278;SDS011;1651;50.940;6.888;2022-09-13T09:29:29;4.40;;;2.70;;
3278;SDS011;1651;50.940;6.888;2022-09-13T09:32:41;8.17;;;2.10;;
3278;SDS011;1651;50.940;6.888;2022-09-13T09:37:40;3.47;;;2.20;;
3278;SDS011;1651;50.940;6.888;2022-09-13T09:40:12;4.37;;;2.20;;
3278;SDS011;1651;50.940;6.888;2022-09-13T09:42:50;2.43;;;2.20;;
3278;SDS011;1651;50.940;6.888;2022-09-13T09:47:45;4.70;;;2.40;;
3278;SDS011;1651;50.940;6.888;2022-09-13T09:50:14;4.83;;;2.33;;
3278;SDS011;1651;50.940;6.888;2022-09-13T09:55:28;2.60;;;2.20;;
3278;SDS011;1651;50.940;6.888;2022-09-13T09:57:58;4.43;;;2.00;;
3278;SDS011;1651;50.940;6.888;2022-09-13T10:00:26;2.03;;;1.80;;
3278;SDS011;1651;50.940;6.888;2022-09-13T10:02:55;2.83;;;2.27;;
3278;SDS011;1651;50.940;6.888;2022-09-13T10:05:26;3.00;;;2.60;;
3278;SDS011;1651;50.940;6.888;2022-09-13T10:08:06;4.20;;;2.87;;
3278;SDS011;1651;50.940;6.888;2022-09-13T10:10:42;5.70;;;2.13;;
3278;SDS011;1651;50.940;6.888;2022-09-13T10:13:14;2.57;;;2.23;;
3278;SDS011;1651;50.940;6.888;2022-09-13T10:18:20;4.57;;;2.87;;
3278;SDS011;1651;50.940;6.888;2022-09-13T10:23:35;1.77;;;1.60;;
3278;SDS011;1651;50.940;6.888;2022-09-13T10:26:11;2.00;;;1.60;;
3278;SDS011;1651;50.940;6.888;2022-09-13T10:31:14;3.30;;;1.93;;
3278;SDS011;1651;50.940;6.888;2022-09-13T10:36:50;2.40;;;1.90;;
3278;SDS011;1651;50.940;6.888;2022-09-13T10:39:18;1.93;;;1.73;;
3278;SDS011;1651;50.940;6.888;2022-09-13T10:41:54;2.53;;;2.33;;
3278;SDS011;1651;50.940;6.888;2022-09-13T10:46:58;3.27;;;1.70;;
3278;SDS011;1651;50.940;6.888;2022-09-13T10:49:45;3.40;;;1.80;;
3278;SDS011;1651;50.940;6.888;2022-09-13T10:52:23;1.80;;;1.50;;
3278;SDS011;1651;50.940;6.888;2022-09-13T10:54:49;2.83;;;1.70;;
3278;SDS011;1651;50.940;6.888;2022-09-13T10:57:26;3.00;;;1.80;;
3278;SDS011;1651;50.940;6.888;2022-09-13T10:59:53;3.93;;;2.07;;
3278;SDS011;1651;50.940;6.888;2022-09-13T11:04:53;1.80;;;1.70;;
3278;SDS011;1651;50.940;6.888;2022-09-13T11:12:37;4.00;;;1.90;;
3278;SDS011;1651;50.940;6.888;2022-09-13T11:20:17;2.50;;;2.30;;
3278;SDS011;1651;50.940;6.888;2022-09-13T11:25:20;2.37;;;1.73;;
3278;SDS011;1651;50.940;6.888;2022-09-13T11:27:53;2.90;;;1.90;;
3278;SDS011;1651;50.940;6.888;2022-09-13T11:30:24;5.80;;;1.90;;
3278;SDS011;1651;50.940;6.888;2022-09-13T11:51:06;2.80;;;2.00;;
3278;SDS011;1651;50.940;6.888;2022-09-13T11:56:19;2.00;;;1.73;;
3278;SDS011;1651;50.940;6.888;2022-09-13T12:01:50;3.00;;;1.97;;
3278;SDS011;1651;50.940;6.888;2022-09-13T12:04:19;2.57;;;2.00;;
3278;SDS011;1651;50.940;6.888;2022-09-13T12:06:57;3.13;;;2.30;;
3278;SDS011;1651;50.940;6.888;2022-09-13T12:09:25;3.40;;;1.73;;
3278;SDS011;1651;50.940;6.888;2022-09-13T12:11:55;2.50;;;2.00;;
3278;SDS011;1651;50.940;6.888;2022-09-13T12:14:24;2.53;;;2.00;;
3278;SDS011;1651;50.940;6.888;2022-09-13T12:16:53;5.83;;;1.67;;
3278;SDS011;1651;50.940;6.888;2022-09-13T12:19:26;3.23;;;2.10;;
3278;SDS011;1651;50.940;6.888;2022-09-13T12:21:53;2.23;;;1.90;;
3278;SDS011;1651;50.940;6.888;2022-09-13T12:24:31;3.53;;;1.77;;
3278;SDS011;1651;50.940;6.888;2022-09-13T12:27:01;2.70;;;1.87;;
3278;SDS011;1651;50.940;6.888;2022-09-13T12:29:47;1.87;;;1.70;;
3278;SDS011;1651;50.940;6.888;2022-09-13T12:32:15;3.67;;;1.90;;
3278;SDS011;1651;50.940;6.888;2022-09-13T12:34:57;1.97;;;1.77;;
3278;SDS011;1651;50.940;6.888;2022-09-13T12:48:02;2.67;;;1.67;;
3278;SDS011;1651;50.940;6.888;2022-09-13T12:55:56;2.97;;;1.90;;
3278;SDS011;1651;50.940;6.888;2022-09-13T13:03:26;1.93;;;1.50;;
3278;SDS011;1651;50.940;6.888;2022-09-13T13:05:56;4.23;;;2.30;;
3278;SDS011;1651;50.940;6.888;2022-09-13T13:08:32;3.80;;;1.67;;
3278;SDS011;1651;50.940;6.888;2022-09-13T13:11:00;3.67;;;2.07;;
3278;SDS011;1651;50.940;6.888;2022-09-13T13:15:57;1.97;;;1.60;;
3278;SDS011;1651;50.940;6.888;2022-09-13T13:18:28;3.30;;;1.87;;
3278;SDS011;1651;50.940;6.888;2022-09-13T13:25:55;2.50;;;1.70;;
3278;SDS011;1651;50.940;6.888;2022-09-13T13:31:08;1.97;;;1.77;;
3278;SDS011;1651;50.940;6.888;2022-09-13T13:36:28;2.50;;;1.47;;
3278;SDS011;1651;50.940;6.888;2022-09-13T13:38:57;6.30;;;1.67;;
3278;SDS011;1651;50.940;6.888;2022-09-13T13:46:42;5.93;;;1.60;;
3278;SDS011;1651;50.940;6.888;2022-09-13T13:55:22;2.80;;;1.77;;
3278;SDS011;1651;50.940;6.888;2022-09-13T14:02:48;2.97;;;1.87;;
3278;SDS011;1651;50.940;6.888;2022-09-13T14:05:26;1.87;;;1.67;;
3278;SDS011;1651;50.940;6.888;2022-09-13T14:13:37;2.40;;;2.20;;
3278;SDS011;1651;50.940;6.888;2022-09-13T14:16:08;1.93;;;1.53;;
3278;SDS011;1651;50.940;6.888;2022-09-13T14:21:32;1.47;;;1.30;;
3278;SDS011;1651;50.940;6.888;2022-09-13T14:26:35;2.57;;;1.57;;
3278;SDS011;1651;50.940;6.888;2022-09-13T14:29:07;3.23;;;1.53;;
3278;SDS011;1651;50.940;6.888;2022-09-13T14:31:34;2.57;;;1.70;;
3278;SDS011;1651;50.940;6.888;2022-09-13T14:34:01;6.00;;;1.90;;
3278;SDS011;1651;50.940;6.888;2022-09-13T14:36:27;2.53;;;1.70;;
3278;SDS011;1651;50.940;6.888;2022-09-13T14:38:57;3.77;;;2.07;;
3278;SDS011;1651;50.940;6.888;2022-09-13T14:41:33;2.50;;;2.00;;
3278;SDS011;1651;50.940;6.888;2022-09-13T14:46:41;3.10;;;1.53;;
3278;SDS011;1651;50.940;6.888;2022-09-13T14:49:08;1.93;;;1.73;;
3278;SDS011;1651;50.940;6.888;2022-09-13T14:51:41;2.23;;;1.70;;
3278;SDS011;1651;50.940;6.888;2022-09-13T14:54:16;2.53;;;1.80;;
3278;SDS011;1651;50.940;6.888;2022-09-13T14:56:48;2.23;;;1.40;;
3278;SDS011;1651;50.940;6.888;2022-09-13T14:59:26;3.10;;;1.43;;
3278;SDS011;1651;50.940;6.888;2022-09-13T15:01:53;4.50;;;1.87;;
3278;SDS011;1651;50.940;6.888;2022-09-13T15:04:21;5.20;;;2.20;;
3278;SDS011;1651;50.940;6.888;2022-09-13T15:07:35;3.00;;;1.90;;
3278;SDS011;1651;50.940;6.888;2022-09-13T15:09:35;5.00;;;1.70;;
3278;SDS011;1651;50.940;6.888;2022-09-13T15:12:02;2.20;;;1.70;;
3278;SDS011;1651;50.940;6.888;2022-09-13T15:14:33;3.90;;;3.03;;
3278;SDS011;1651;50.940;6.888;2022-09-13T15:17:05;2.40;;;1.80;;
3278;SDS011;1651;50.940;6.888;2022-09-13T15:22:26;2.27;;;1.80;;
3278;SDS011;1651;50.940;6.888;2022-09-13T15:24:55;4.47;;;1.97;;
3278;SDS011;1651;50.940;6.888;2022-09-13T15:27:23;3.43;;;1.60;;
3278;SDS011;1651;50.940;6.888;2022-09-13T15:30:00;2.30;;;1.63;;
3278;SDS011;1651;50.940;6.888;2022-09-13T15:32:30;3.20;;;2.40;;
3278;SDS011;1651;50.940;6.888;2022-09-13T15:34:57;2.50;;;1.93;;
3278;SDS011;1651;50.940;6.888;2022-09-13T15:37:28;4.30;;;2.00;;
3278;SDS011;1651;50.940;6.888;2022-09-13T15:42:33;3.67;;;2.20;;
3278;SDS011;1651;50.940;6.888;2022-09-13T15:45:00;2.60;;;1.70;;
3278;SDS011;1651;50.940;6.888;2022-09-13T15:47:26;2.40;;;2.07;;
3278;SDS011;1651;50.940;6.888;2022-09-13T15:49:53;2.70;;;2.50;;
3278;SDS011;1651;50.940;6.888;2022-09-13T15:52:21;2.50;;;2.30;;
3278;SDS011;1651;50.940;6.888;2022-09-13T15:54:49;7.97;;;2.60;;
3278;SDS011;1651;50.940;6.888;2022-09-13T15:57:17;2.57;;;2.37;;
3278;SDS011;1651;50.940;6.888;2022-09-13T15:59:44;9.50;;;2.20;;
3278;SDS011;1651;50.940;6.888;2022-09-13T16:02:20;3.90;;;2.37;;
3278;SDS011;1651;50.940;6.888;2022-09-13T16:04:47;2.43;;;1.80;;
3278;SDS011;1651;50.940;6.888;2022-09-13T16:07:15;8.50;;;2.97;;
3278;SDS011;1651;50.940;6.888;2022-09-13T16:09:42;2.40;;;2.20;;
3278;SDS011;1651;50.940;6.888;2022-09-13T16:12:08;2.90;;;2.23;;
3278;SDS011;1651;50.940;6.888;2022-09-13T16:14:34;6.40;;;2.13;;
3278;SDS011;1651;50.940;6.888;2022-09-13T16:17:10;2.43;;;2.20;;
3278;SDS011;1651;50.940;6.888;2022-09-13T16:19:36;3.83;;;2.67;;
3278;SDS011;1651;50.940;6.888;2022-09-13T16:22:08;7.60;;;3.30;;
3278;SDS011;1651;50.940;6.888;2022-09-13T16:24:45;6.20;;;3.30;;
3278;SDS011;1651;50.940;6.888;2022-09-13T16:27:15;7.10;;;3.40;;
3278;SDS011;1651;50.940;6.888;2022-09-13T16:29:44;3.50;;;2.67;;
3278;SDS011;1651;50.940;6.888;2022-09-13T16:32:12;8.40;;;3.00;;
3278;SDS011;1651;50.940;6.888;2022-09-13T16:34:44;4.40;;;3.03;;
3278;SDS011;1651;50.940;6.888;2022-09-13T16:37:16;3.47;;;2.43;;
3278;SDS011;1651;50.940;6.888;2022-09-13T16:42:14;4.30;;;2.07;;
3278;SDS011;1651;50.940;6.888;2022-09-13T16:44:44;2.90;;;2.30;;
3278;SDS011;1651;50.940;6.888;2022-09-13T16:47:10;2.10;;;1.90;;
3278;SDS011;1651;50.940;6.888;2022-09-13T16:49:37;3.00;;;2.17;;
3278;SDS011;1651;50.940;6.888;2022-09-13T16:52:04;3.10;;;1.87;;
3278;SDS011;1651;50.940;6.888;2022-09-13T16:54:30;2.70;;;2.37;;
3278;SDS011;1651;50.940;6.888;2022-09-13T16:57:06;3.83;;;2.33;;
3278;SDS011;1651;50.940;6.888;2022-09-13T16:59:36;4.13;;;2.30;;
3278;SDS011;1651;50.940;6.888;2022-09-13T17:02:02;4.10;;;3.10;;
3278;SDS011;1651;50.940;6.888;2022-09-13T17:04:28;3.53;;;2.80;;
3278;SDS011;1651;50.940;6.888;2022-09-13T17:06:54;4.60;;;2.60;;
3278;SDS011;1651;50.940;6.888;2022-09-13T17:09:21;4.80;;;3.20;;
3278;SDS011;1651;50.940;6.888;2022-09-13T17:11:51;4.10;;;3.10;;
3278;SDS011;1651;50.940;6.888;2022-09-13T17:14:17;6.77;;;3.67;;
3278;SDS011;1651;50.940;6.888;2022-09-13T17:16:47;3.33;;;2.97;;
3278;SDS011;1651;50.940;6.888;2022-09-13T17:19:18;2.87;;;2.67;;
3278;SDS011;1651;50.940;6.888;2022-09-13T17:21:45;3.70;;;2.90;;
3278;SDS011;1651;50.940;6.888;2022-09-13T17:24:11;6.20;;;2.83;;
3278;SDS011;1651;50.940;6.888;2022-09-13T17:26:38;6.90;;;2.70;;
3278;SDS011;1651;50.940;6.888;2022-09-13T17:29:05;6.07;;;3.10;;
3278;SDS011;1651;50.940;6.888;2022-09-13T17:31:31;4.77;;;2.80;;
3278;SDS011;1651;50.940;6.888;2022-09-13T17:33:58;5.33;;;2.67;;
3278;SDS011;1651;50.940;6.888;2022-09-13T17:36:24;4.13;;;3.23;;
3278;SDS011;1651;50.940;6.888;2022-09-13T17:38:54;4.73;;;2.70;;
3278;SDS011;1651;50.940;6.888;2022-09-13T17:41:23;4.63;;;2.73;;
3278;SDS011;1651;50.940;6.888;2022-09-13T17:43:49;5.60;;;2.87;;
3278;SDS011;1651;50.940;6.888;2022-09-13T17:46:18;5.43;;;3.10;;
3278;SDS011;1651;50.940;6.888;2022-09-13T17:48:50;3.70;;;3.00;;
3278;SDS011;1651;50.940;6.888;2022-09-13T17:51:22;5.97;;;3.50;;
3278;SDS011;1651;50.940;6.888;2022-09-13T17:53:51;5.43;;;3.00;;
3278;SDS011;1651;50.940;6.888;2022-09-13T17:56:20;4.87;;;3.70;;
3278;SDS011;1651;50.940;6.888;2022-09-13T17:58:47;5.03;;;3.30;;
3278;SDS011;1651;50.940;6.888;2022-09-13T18:01:15;3.57;;;3.27;;
3278;SDS011;1651;50.940;6.888;2022-09-13T18:03:43;5.83;;;3.50;;
3278;SDS011;1651;50.940;6.888;2022-09-13T18:06:09;4.33;;;3.17;;
3278;SDS011;1651;50.940;6.888;2022-09-13T18:08:37;4.53;;;3.77;;
3278;SDS011;1651;50.940;6.888;2022-09-13T18:11:04;6.33;;;3.47;;
3278;SDS011;1651;50.940;6.888;2022-09-13T18:13:32;5.10;;;2.90;;
3278;SDS011;1651;50.940;6.888;2022-09-13T18:18:25;7.63;;;4.50;;
3278;SDS011;1651;50.940;6.888;2022-09-13T18:20:51;5.80;;;3.90;;
3278;SDS011;1651;50.940;6.888;2022-09-13T18:23:17;4.10;;;3.50;;
3278;SDS011;1651;50.940;6.888;2022-09-13T18:25:44;7.13;;;4.50;;
3278;SDS011;1651;50.940;6.888;2022-09-13T18:28:20;5.70;;;4.00;;
3278;SDS011;1651;50.940;6.888;2022-09-13T18:30:53;6.60;;;3.87;;
3278;SDS011;1651;50.940;6.888;2022-09-13T18:38:27;4.80;;;3.70;;
3278;SDS011;1651;50.940;6.888;2022-09-13T18:41:00;6.13;;;4.23;;
3278;SDS011;1651;50.940;6.888;2022-09-13T18:43:40;5.33;;;4.23;;
3278;SDS011;1651;50.940;6.888;2022-09-13T18:46:16;5.70;;;4.40;;
3278;SDS011;1651;50.940;6.888;2022-09-13T18:48:46;4.80;;;4.30;;
3278;SDS011;1651;50.940;6.888;2022-09-13T18:51:14;6.50;;;4.90;;
3278;SDS011;1651;50.940;6.888;2022-09-13T18:53:43;6.57;;;4.23;;
3278;SDS011;1651;50.940;6.888;2022-09-13T18:56:10;8.20;;;4.10;;
3278;SDS011;1651;50.940;6.888;2022-09-13T18:58:37;6.87;;;4.50;;
3278;SDS011;1651;50.940;6.888;2022-09-13T19:01:04;5.60;;;4.20;;
3278;SDS011;1651;50.940;6.888;2022-09-13T19:03:31;6.63;;;4.80;;
3278;SDS011;1651;50.940;6.888;2022-09-13T19:06:07;5.87;;;4.57;;
3278;SDS011;1651;50.940;6.888;2022-09-13T19:08:33;9.50;;;5.30;;
3278;SDS011;1651;50.940;6.888;2022-09-13T19:10:59;7.27;;;4.70;;
3278;SDS011;1651;50.940;6.888;2022-09-13T19:13:30;6.50;;;5.67;;
3278;SDS011;1651;50.940;6.888;2022-09-13T19:16:00;5.30;;;4.80;;
3278;SDS011;1651;50.940;6.888;2022-09-13T19:18:26;12.20;;;5.90;;
3278;SDS011;1651;50.940;6.888;2022-09-13T19:23:28;9.90;;;5.03;;
3278;SDS011;1651;50.940;6.888;2022-09-13T19:25:55;7.27;;;5.13;;
3278;SDS011;1651;50.940;6.888;2022-09-13T19:28:21;6.70;;;5.60;;
3278;SDS011;1651;50.940;6.888;2022-09-13T19:30:47;6.67;;;5.00;;
3278;SDS011;1651;50.940;6.888;2022-09-13T19:33:14;6.33;;;5.00;;
3278;SDS011;1651;50.940;6.888;2022-09-13T19:35:40;8.17;;;5.10;;
3278;SDS011;1651;50.940;6.888;2022-09-13T19:38:06;5.27;;;4.77;;
3278;SDS011;1651;50.940;6.888;2022-09-13T19:40:33;7.90;;;5.40;;
3278;SDS011;1651;50.940;6.888;2022-09-13T19:43:00;7.20;;;5.70;;
3278;SDS011;1651;50.940;6.888;2022-09-13T19:45:27;7.83;;;5.23;;
3278;SDS011;1651;50.940;6.888;2022-09-13T19:47:53;8.30;;;5.73;;
3278;SDS011;1651;50.940;6.888;2022-09-13T19:50:20;11.60;;;7.30;;
3278;SDS011;1651;50.940;6.888;2022-09-13T19:52:45;6.57;;;5.60;;
3278;SDS011;1651;50.940;6.888;2022-09-13T19:55:14;9.30;;;6.03;;